Terminal Aerodrome Forecast
Issued by NWS

Home | Current Version | Previous Version | Graphics & Text | Print | Product List | Glossary On
Versions: 1 2 3 4 5 6 7 8 9 10 11 12 13 14 15 16 17 18 19
880
FTUS43 KUNR 192320
TAFGCC
TAF
KGCC 192320Z 2000/2024 15008KT 5SM -RA BKN008 OVC015
     FM200600 15007KT P6SM OVC010
     FM201700 14007KT P6SM BKN025=

USA.gov is the U.S. government's official web portal to all federal, state and local government web resources and services.